Weather at Moores Island Airport

Public forecast

Using degrees Celsius for public forecast. Weather courtesy of forecast.io.

Closest aviation weather report (METAR) to Moores Island Airport

Report is more than 2 hours old.

Closest report is Grand Bahama International Airport, 62.7 nm (116.1 km) WNW. Retrieved 2020/09/26 00:00 UTC (2 hours ago):

MYGF 260000Z 15004KT 9999 VCTS VCSH SCT012CB SCT040 BKN120 26/24 A3001

Closest aviation forecast (TAF) to Moores Island Airport

Forecast is more than 6 hours old.

Closest forecast is Grand Bahama International Airport, 62.7 nm (116.1 km) WNW. Retrieved 2020/09/25 18:37 UTC (8 hours ago):

TAF MYGF 251655Z 2518/2618 18012KT 9000 A TSRA FEW012CB SCT018 BKN100 FM250000 19005KT 9000 SHRA FEW015CB SCT018 BKN100